sensor_id;sensor_type;location;lat;lon;timestamp;pressure;altitude;pressure_sealevel;temperature;humidity
41312;BME280;27061;41.648;24.568;2023-10-31T00:02:15;86291.81;;;9.80;67.77
41312;BME280;27061;41.648;24.568;2023-10-31T00:04:42;86284.94;;;9.73;67.64
41312;BME280;27061;41.648;24.568;2023-10-31T00:07:10;86245.59;;;9.48;67.90
41312;BME280;27061;41.648;24.568;2023-10-31T00:09:37;86251.78;;;9.57;68.41
41312;BME280;27061;41.648;24.568;2023-10-31T00:12:06;86256.66;;;9.44;69.20
41312;BME280;27061;41.648;24.568;2023-10-31T00:14:33;86243.56;;;9.34;68.50
41312;BME280;27061;41.648;24.568;2023-10-31T00:17:02;86260.81;;;9.53;68.56
41312;BME280;27061;41.648;24.568;2023-10-31T00:19:30;86258.72;;;9.53;68.23
41312;BME280;27061;41.648;24.568;2023-10-31T00:21:57;86235.31;;;9.32;68.16
41312;BME280;27061;41.648;24.568;2023-10-31T00:24:24;86260.81;;;9.51;67.77
41312;BME280;27061;41.648;24.568;2023-10-31T00:26:52;86252.53;;;9.37;67.53
41312;BME280;27061;41.648;24.568;2023-10-31T00:29:20;86252.50;;;9.47;68.77
41312;BME280;27061;41.648;24.568;2023-10-31T00:31:47;86169.09;;;8.92;67.79
41312;BME280;27061;41.648;24.568;2023-10-31T00:34:14;86247.00;;;9.45;68.14
41312;BME280;27061;41.648;24.568;2023-10-31T00:36:41;86221.47;;;9.26;67.91
41312;BME280;27061;41.648;24.568;2023-10-31T00:39:08;86204.28;;;9.05;68.19
41312;BME280;27061;41.648;24.568;2023-10-31T00:41:35;86178.75;;;8.93;68.18
41312;BME280;27061;41.648;24.568;2023-10-31T00:44:03;86225.66;;;9.17;68.41
41312;BME280;27061;41.648;24.568;2023-10-31T00:46:30;86243.59;;;9.30;68.76
41312;BME280;27061;41.648;24.568;2023-10-31T00:48:57;86198.06;;;8.97;69.04
41312;BME280;27061;41.648;24.568;2023-10-31T00:51:24;86180.19;;;8.67;68.37
41312;BME280;27061;41.648;24.568;2023-10-31T00:53:51;86252.56;;;9.29;67.77
41312;BME280;27061;41.648;24.568;2023-10-31T00:56:18;86246.34;;;9.22;68.31
41312;BME280;27061;41.648;24.568;2023-10-31T00:58:46;86247.72;;;9.29;68.34
41312;BME280;27061;41.648;24.568;2023-10-31T01:01:14;86136.03;;;8.53;67.71
41312;BME280;27061;41.648;24.568;2023-10-31T01:03:42;86204.97;;;8.98;67.82
41312;BME280;27061;41.648;24.568;2023-10-31T01:06:09;86209.06;;;9.13;67.72
41312;BME280;27061;41.648;24.568;2023-10-31T01:08:36;86233.22;;;9.29;67.50
41312;BME280;27061;41.648;24.568;2023-10-31T01:11:03;86196.69;;;8.92;67.83
41312;BME280;27061;41.648;24.568;2023-10-31T01:13:31;86233.91;;;9.29;67.75
41312;BME280;27061;41.648;24.568;2023-10-31T01:15:58;86223.59;;;9.09;67.71
41312;BME280;27061;41.648;24.568;2023-10-31T01:18:25;86187.06;;;8.78;68.21
41312;BME280;27061;41.648;24.568;2023-10-31T01:20:52;86230.50;;;9.04;69.12
41312;BME280;27061;41.648;24.568;2023-10-31T01:23:19;86232.56;;;9.16;67.92
41312;BME280;27061;41.648;24.568;2023-10-31T01:25:47;86235.31;;;9.16;67.74
41312;BME280;27061;41.648;24.568;2023-10-31T01:28:14;86233.94;;;9.15;67.85
41312;BME280;27061;41.648;24.568;2023-10-31T01:30:41;86240.84;;;9.14;68.01
41312;BME280;27061;41.648;24.568;2023-10-31T01:33:08;86200.84;;;8.89;68.01
41312;BME280;27061;41.648;24.568;2023-10-31T01:35:36;86233.28;;;9.06;67.51
41312;BME280;27061;41.648;24.568;2023-10-31T01:38:03;86240.16;;;9.03;68.56
41312;BME280;27061;41.648;24.568;2023-10-31T01:40:30;86231.88;;;9.09;68.43
41312;BME280;27061;41.648;24.568;2023-10-31T01:42:57;86235.34;;;8.96;69.13
41312;BME280;27061;41.648;24.568;2023-10-31T01:45:24;86221.53;;;8.96;68.64
41312;BME280;27061;41.648;24.568;2023-10-31T01:47:53;86213.97;;;8.98;67.79
41312;BME280;27061;41.648;24.568;2023-10-31T01:50:20;86229.13;;;9.03;67.71
41312;BME280;27061;41.648;24.568;2023-10-31T01:52:48;86186.38;;;8.78;67.77
41312;BME280;27061;41.648;24.568;2023-10-31T01:55:16;86220.19;;;8.89;68.42
41312;BME280;27061;41.648;24.568;2023-10-31T01:57:45;86195.38;;;8.54;68.75
41312;BME280;27061;41.648;24.568;2023-10-31T02:00:14;86220.88;;;8.89;68.45
41312;BME280;27061;41.648;24.568;2023-10-31T02:02:42;86222.94;;;8.85;68.63
41312;BME280;27061;41.648;24.568;2023-10-31T02:05:10;86193.28;;;8.67;68.60
41312;BME280;27061;41.648;24.568;2023-10-31T02:07:37;86211.91;;;8.85;68.57
41312;BME280;27061;41.648;24.568;2023-10-31T02:10:05;86150.53;;;8.39;68.59
41312;BME280;27061;41.648;24.568;2023-10-31T02:12:36;86182.25;;;8.51;69.05
41312;BME280;27061;41.648;24.568;2023-10-31T02:15:04;86193.28;;;8.55;69.29
41312;BME280;27061;41.648;24.568;2023-10-31T02:17:32;86178.81;;;8.42;68.90
41312;BME280;27061;41.648;24.568;2023-10-31T02:19:59;86181.56;;;8.48;69.34
41312;BME280;27061;41.648;24.568;2023-10-31T02:22:26;86188.47;;;8.67;69.02
41312;BME280;27061;41.648;24.568;2023-10-31T02:24:54;86196.06;;;8.44;70.34
41312;BME280;27061;41.648;24.568;2023-10-31T02:27:22;86197.44;;;8.54;69.24
41312;BME280;27061;41.648;24.568;2023-10-31T02:29:49;86200.88;;;8.58;68.80
41312;BME280;27061;41.648;24.568;2023-10-31T02:32:19;86190.53;;;8.51;69.20
41312;BME280;27061;41.648;24.568;2023-10-31T02:34:46;86176.06;;;8.44;69.02
41312;BME280;27061;41.648;24.568;2023-10-31T02:37:13;86164.34;;;8.33;68.98
41312;BME280;27061;41.648;24.568;2023-10-31T02:39:41;86164.31;;;8.23;69.75
41312;BME280;27061;41.648;24.568;2023-10-31T02:42:08;86189.13;;;8.48;69.28
41312;BME280;27061;41.648;24.568;2023-10-31T02:44:35;86191.22;;;8.49;69.74
41312;BME280;27061;41.648;24.568;2023-10-31T02:47:03;86193.97;;;8.51;69.04
41312;BME280;27061;41.648;24.568;2023-10-31T02:49:30;86163.59;;;8.31;68.90
41312;BME280;27061;41.648;24.568;2023-10-31T02:51:57;86154.66;;;8.22;68.44
41312;BME280;27061;41.648;24.568;2023-10-31T02:54:24;86140.19;;;8.16;68.27
41312;BME280;27061;41.648;24.568;2023-10-31T02:56:51;86164.34;;;8.35;68.38
41312;BME280;27061;41.648;24.568;2023-10-31T02:59:18;86175.38;;;8.43;68.59
41312;BME280;27061;41.648;24.568;2023-10-31T03:01:45;86174.66;;;8.39;68.47
41312;BME280;27061;41.648;24.568;2023-10-31T03:04:13;86178.81;;;8.46;68.11
41312;BME280;27061;41.648;24.568;2023-10-31T03:06:40;86190.53;;;8.61;68.49
41312;BME280;27061;41.648;24.568;2023-10-31T03:09:07;86129.16;;;8.14;68.74
41312;BME280;27061;41.648;24.568;2023-10-31T03:11:52;86194.66;;;8.50;69.19
41312;BME280;27061;41.648;24.568;2023-10-31T03:14:20;86155.31;;;8.00;70.19
41312;BME280;27061;41.648;24.568;2023-10-31T03:16:47;86191.91;;;8.41;69.52
41312;BME280;27061;41.648;24.568;2023-10-31T03:19:14;86196.03;;;8.49;69.01
41312;BME280;27061;41.648;24.568;2023-10-31T03:21:42;86141.56;;;8.15;68.18
41312;BME280;27061;41.648;24.568;2023-10-31T03:24:09;86187.09;;;8.52;68.14
41312;BME280;27061;41.648;24.568;2023-10-31T03:26:36;86121.56;;;8.12;67.93
41312;BME280;27061;41.648;24.568;2023-10-31T03:29:03;86171.91;;;8.35;67.66
41312;BME280;27061;41.648;24.568;2023-10-31T03:31:30;86185.03;;;8.47;67.82
41312;BME280;27061;41.648;24.568;2023-10-31T03:33:57;86189.84;;;8.50;67.74
41312;BME280;27061;41.648;24.568;2023-10-31T03:36:24;86182.25;;;8.47;67.98
41312;BME280;27061;41.648;24.568;2023-10-31T03:38:51;86162.94;;;8.34;67.68
41312;BME280;27061;41.648;24.568;2023-10-31T03:41:19;86155.31;;;8.29;67.24
41312;BME280;27061;41.648;24.568;2023-10-31T03:43:46;86177.44;;;8.41;67.20
41312;BME280;27061;41.648;24.568;2023-10-31T03:46:14;86173.31;;;8.46;66.64
41312;BME280;27061;41.648;24.568;2023-10-31T03:48:41;86176.03;;;8.38;66.62
41312;BME280;27061;41.648;24.568;2023-10-31T03:51:08;86187.09;;;8.52;65.96
41312;BME280;27061;41.648;24.568;2023-10-31T03:53:35;86179.50;;;8.36;66.56
41312;BME280;27061;41.648;24.568;2023-10-31T03:56:03;86147.06;;;8.21;66.64
41312;BME280;27061;41.648;24.568;2023-10-31T03:58:30;86190.53;;;8.44;66.93
41312;BME280;27061;41.648;24.568;2023-10-31T04:00:57;86189.16;;;8.41;66.75
41312;BME280;27061;41.648;24.568;2023-10-31T04:03:25;86187.09;;;8.34;66.25
41312;BME280;27061;41.648;24.568;2023-10-31T04:05:52;86069.84;;;7.54;65.99
41312;BME280;27061;41.648;24.568;2023-10-31T04:08:20;86187.06;;;8.24;66.16
41312;BME280;27061;41.648;24.568;2023-10-31T04:10:47;86170.50;;;8.03;65.88
41312;BME280;27061;41.648;24.568;2023-10-31T04:13:15;86192.56;;;8.28;65.36
41312;BME280;27061;41.648;24.568;2023-10-31T04:15:42;86155.31;;;8.17;65.70
41312;BME280;27061;41.648;24.568;2023-10-31T04:18:09;86181.53;;;8.24;64.62
41312;BME280;27061;41.648;24.568;2023-10-31T04:20:36;86151.19;;;7.99;64.82
41312;BME280;27061;41.648;24.568;2023-10-31T04:23:03;86144.97;;;7.77;65.29
41312;BME280;27061;41.648;24.568;2023-10-31T04:25:32;86107.75;;;7.67;64.88
41312;BME280;27061;41.648;24.568;2023-10-31T04:28:00;86180.16;;;8.19;64.91
41312;BME280;27061;41.648;24.568;2023-10-31T04:30:27;86178.78;;;8.12;65.54
41312;BME280;27061;41.648;24.568;2023-10-31T04:32:54;86173.94;;;7.98;65.68
41312;BME280;27061;41.648;24.568;2023-10-31T04:35:21;86182.22;;;8.00;66.10
41312;BME280;27061;41.648;24.568;2023-10-31T04:37:48;86188.44;;;8.02;65.58
41312;BME280;27061;41.648;24.568;2023-10-31T04:40:16;86185.66;;;8.00;65.77
41312;BME280;27061;41.648;24.568;2023-10-31T04:42:46;86156.69;;;7.81;65.46
41312;BME280;27061;41.648;24.568;2023-10-31T04:45:13;86178.06;;;7.93;64.96
41312;BME280;27061;41.648;24.568;2023-10-31T04:47:41;85993.97;;;6.66;64.44
41312;BME280;27061;41.648;24.568;2023-10-31T04:50:09;86090.50;;;7.39;65.13
41312;BME280;27061;41.648;24.568;2023-10-31T04:52:36;86108.44;;;7.52;64.81
41312;BME280;27061;41.648;24.568;2023-10-31T04:55:03;86174.63;;;7.98;66.14
41312;BME280;27061;41.648;24.568;2023-10-31T04:57:31;86131.81;;;7.39;66.01
41312;BME280;27061;41.648;24.568;2023-10-31T04:59:58;86118.06;;;7.49;66.22
41312;BME280;27061;41.648;24.568;2023-10-31T05:02:26;86082.19;;;7.24;66.83
41312;BME280;27061;41.648;24.568;2023-10-31T05:04:53;86120.81;;;7.47;66.77
41312;BME280;27061;41.648;24.568;2023-10-31T05:07:21;86116.69;;;7.48;66.55
41312;BME280;27061;41.648;24.568;2023-10-31T05:09:48;86113.94;;;7.50;65.97
41312;BME280;27061;41.648;24.568;2023-10-31T05:12:15;86160.13;;;7.88;66.40
41312;BME280;27061;41.648;24.568;2023-10-31T05:14:42;86076.69;;;7.32;66.01
41312;BME280;27061;41.648;24.568;2023-10-31T05:17:09;86158.06;;;7.78;66.67
41312;BME280;27061;41.648;24.568;2023-10-31T05:19:37;86148.41;;;7.77;65.89
41312;BME280;27061;41.648;24.568;2023-10-31T05:22:04;86133.25;;;7.80;65.56
41312;BME280;27061;41.648;24.568;2023-10-31T05:24:31;86053.94;;;7.14;65.18
41312;BME280;27061;41.648;24.568;2023-10-31T05:26:59;86128.41;;;7.68;65.33
41312;BME280;27061;41.648;24.568;2023-10-31T05:29:26;86118.06;;;7.53;66.03
41312;BME280;27061;41.648;24.568;2023-10-31T05:31:53;86142.16;;;7.52;66.42
41312;BME280;27061;41.648;24.568;2023-10-31T05:34:20;86129.09;;;7.65;65.55
41312;BME280;27061;41.648;24.568;2023-10-31T05:36:50;86097.41;;;7.48;65.08
41312;BME280;27061;41.648;24.568;2023-10-31T05:39:17;86151.19;;;7.83;65.71
41312;BME280;27061;41.648;24.568;2023-10-31T05:41:44;86156.66;;;7.69;66.34
41312;BME280;27061;41.648;24.568;2023-10-31T05:44:15;86140.16;;;7.73;66.03
41312;BME280;27061;41.648;24.568;2023-10-31T05:46:42;86094.59;;;7.29;66.17
41312;BME280;27061;41.648;24.568;2023-10-31T05:49:10;86139.41;;;7.52;67.44
41312;BME280;27061;41.648;24.568;2023-10-31T05:51:39;86169.09;;;7.86;67.50
41312;BME280;27061;41.648;24.568;2023-10-31T05:54:07;86135.28;;;7.53;67.28
41312;BME280;27061;41.648;24.568;2023-10-31T05:56:35;86091.81;;;7.17;67.46
41312;BME280;27061;41.648;24.568;2023-10-31T05:59:02;86057.34;;;6.92;67.42
41312;BME280;27061;41.648;24.568;2023-10-31T06:01:29;86055.31;;;7.11;67.19
41312;BME280;27061;41.648;24.568;2023-10-31T06:03:57;86184.31;;;8.16;67.62
41312;BME280;27061;41.648;24.568;2023-10-31T06:06:24;86172.56;;;8.21;69.28
41312;BME280;27061;41.648;24.568;2023-10-31T06:08:51;86132.59;;;7.94;68.29
41312;BME280;27061;41.648;24.568;2023-10-31T06:11:19;86095.34;;;7.75;68.90
41312;BME280;27061;41.648;24.568;2023-10-31T06:13:46;86050.53;;;7.23;68.74
41312;BME280;27061;41.648;24.568;2023-10-31T06:16:15;86181.56;;;8.32;68.82
41312;BME280;27061;41.648;24.568;2023-10-31T06:18:42;86182.94;;;8.45;68.90
41312;BME280;27061;41.648;24.568;2023-10-31T06:21:09;86008.53;;;7.27;69.28
41312;BME280;27061;41.648;24.568;2023-10-31T06:23:37;86151.22;;;8.38;69.83
41312;BME280;27061;41.648;24.568;2023-10-31T06:26:05;86188.47;;;8.67;70.17
41312;BME280;27061;41.648;24.568;2023-10-31T06:28:32;86109.84;;;8.16;69.82
41312;BME280;27061;41.648;24.568;2023-10-31T06:31:07;86113.31;;;8.34;71.24
41312;BME280;27061;41.648;24.568;2023-10-31T06:33:34;86192.56;;;8.93;70.47
41312;BME280;27061;41.648;24.568;2023-10-31T06:36:01;86166.38;;;8.77;69.99
41312;BME280;27061;41.648;24.568;2023-10-31T06:38:28;86136.00;;;8.77;70.86
41312;BME280;27061;41.648;24.568;2023-10-31T06:40:56;86102.91;;;8.67;71.74
41312;BME280;27061;41.648;24.568;2023-10-31T06:43:24;86184.84;;;9.38;72.80
41312;BME280;27061;41.648;24.568;2023-10-31T06:45:51;86160.03;;;9.26;71.48
41312;BME280;27061;41.648;24.568;2023-10-31T06:48:18;86186.84;;;9.58;71.81
41312;BME280;27061;41.648;24.568;2023-10-31T06:50:45;86178.53;;;9.64;71.79
41312;BME280;27061;41.648;24.568;2023-10-31T06:53:12;86148.09;;;9.68;70.92
41312;BME280;27061;41.648;24.568;2023-10-31T06:55:39;86163.19;;;9.91;72.25
41312;BME280;27061;41.648;24.568;2023-10-31T06:58:06;86108.06;;;9.61;70.75
41312;BME280;27061;41.648;24.568;2023-10-31T07:00:33;86179.56;;;10.30;71.03
41312;BME280;27061;41.648;24.568;2023-10-31T07:03:00;86164.97;;;10.39;71.35
41312;BME280;27061;41.648;24.568;2023-10-31T07:05:33;86198.63;;;10.72;70.29
41312;BME280;27061;41.648;24.568;2023-10-31T07:08:00;86179.16;;;10.82;66.50
41312;BME280;27061;41.648;24.568;2023-10-31T07:10:27;86153.50;;;10.88;66.68
41312;BME280;27061;41.648;24.568;2023-10-31T07:12:54;86180.81;;;11.28;63.50
41312;BME280;27061;41.648;24.568;2023-10-31T07:15:22;86178.53;;;11.47;60.66
41312;BME280;27061;41.648;24.568;2023-10-31T07:17:49;86168.69;;;11.60;63.10
41312;BME280;27061;41.648;24.568;2023-10-31T07:20:16;86169.91;;;11.78;63.24
41312;BME280;27061;41.648;24.568;2023-10-31T07:22:43;86171.72;;;11.99;63.02
41312;BME280;27061;41.648;24.568;2023-10-31T07:25:11;86150.97;;;11.94;61.89
41312;BME280;27061;41.648;24.568;2023-10-31T07:27:38;86174.72;;;12.34;61.50
41312;BME280;27061;41.648;24.568;2023-10-31T07:30:06;86164.16;;;12.47;57.85
41312;BME280;27061;41.648;24.568;2023-10-31T07:32:33;86175.63;;;12.70;59.30
41312;BME280;27061;41.648;24.568;2023-10-31T07:35:01;86165.59;;;12.89;61.10
41312;BME280;27061;41.648;24.568;2023-10-31T07:37:28;86133.69;;;12.86;58.78
41312;BME280;27061;41.648;24.568;2023-10-31T07:39:55;86166.34;;;13.29;57.20
41312;BME280;27061;41.648;24.568;2023-10-31T07:42:22;86164.59;;;13.48;57.44
41312;BME280;27061;41.648;24.568;2023-10-31T07:44:50;86172.69;;;13.64;57.20
41312;BME280;27061;41.648;24.568;2023-10-31T07:47:17;86136.63;;;13.56;54.28
41312;BME280;27061;41.648;24.568;2023-10-31T07:49:45;86166.50;;;13.97;50.91
41312;BME280;27061;41.648;24.568;2023-10-31T07:52:12;86163.31;;;14.17;51.18
41312;BME280;27061;41.648;24.568;2023-10-31T07:54:39;86165.66;;;14.39;50.85
41312;BME280;27061;41.648;24.568;2023-10-31T07:57:09;86164.56;;;14.57;49.55
41312;BME280;27061;41.648;24.568;2023-10-31T07:59:36;86159.31;;;14.74;49.86
41312;BME280;27061;41.648;24.568;2023-10-31T08:02:04;86155.31;;;14.97;49.85
41312;BME280;27061;41.648;24.568;2023-10-31T08:04:31;86079.03;;;14.51;48.43
41312;BME280;27061;41.648;24.568;2023-10-31T08:06:58;86164.31;;;15.29;48.16
41312;BME280;27061;41.648;24.568;2023-10-31T08:09:26;86105.47;;;15.12;47.10
41312;BME280;27061;41.648;24.568;2023-10-31T08:11:53;86100.84;;;15.29;46.33
41312;BME280;27061;41.648;24.568;2023-10-31T08:14:20;86148.50;;;15.77;44.41
41312;BME280;27061;41.648;24.568;2023-10-31T08:16:51;86135.41;;;15.96;43.53
41312;BME280;27061;41.648;24.568;2023-10-31T08:19:19;86103.16;;;16.01;45.24
41312;BME280;27061;41.648;24.568;2023-10-31T08:21:46;86125.28;;;16.34;43.79
41312;BME280;27061;41.648;24.568;2023-10-31T08:24:13;86123.31;;;16.54;41.23
41312;BME280;27061;41.648;24.568;2023-10-31T08:26:40;86127.78;;;16.69;38.47
41312;BME280;27061;41.648;24.568;2023-10-31T08:29:07;86123.25;;;16.80;40.13
41312;BME280;27061;41.648;24.568;2023-10-31T08:31:35;86131.22;;;16.95;38.01
41312;BME280;27061;41.648;24.568;2023-10-31T08:34:02;86125.19;;;17.09;40.15
41312;BME280;27061;41.648;24.568;2023-10-31T08:36:30;86115.03;;;17.20;38.51
41312;BME280;27061;41.648;24.568;2023-10-31T08:38:57;86048.03;;;16.72;37.84
41312;BME280;27061;41.648;24.568;2023-10-31T08:41:24;86061.16;;;16.99;37.10
41312;BME280;27061;41.648;24.568;2023-10-31T08:43:52;86084.25;;;17.20;36.66
41312;BME280;27061;41.648;24.568;2023-10-31T08:46:19;86103.94;;;17.60;37.03
41312;BME280;27061;41.648;24.568;2023-10-31T08:48:46;86116.19;;;17.71;37.03
41312;BME280;27061;41.648;24.568;2023-10-31T08:51:14;86117.22;;;17.82;37.24
41312;BME280;27061;41.648;24.568;2023-10-31T08:53:41;86105.09;;;17.69;34.83
41312;BME280;27061;41.648;24.568;2023-10-31T08:56:08;86052.75;;;17.42;35.38
41312;BME280;27061;41.648;24.568;2023-10-31T08:58:35;86090.31;;;17.70;33.77
41312;BME280;27061;41.648;24.568;2023-10-31T09:01:02;86100.16;;;18.11;34.71
41312;BME280;27061;41.648;24.568;2023-10-31T09:03:30;86119.25;;;18.25;34.62
41312;BME280;27061;41.648;24.568;2023-10-31T09:05:57;86087.75;;;18.24;36.01
41312;BME280;27061;41.648;24.568;2023-10-31T09:08:24;86103.91;;;18.43;36.51
41312;BME280;27061;41.648;24.568;2023-10-31T09:10:51;86074.66;;;18.38;36.41
41312;BME280;27061;41.648;24.568;2023-10-31T09:13:18;86079.28;;;18.45;35.38
41312;BME280;27061;41.648;24.568;2023-10-31T09:15:45;86097.13;;;18.75;36.17
41312;BME280;27061;41.648;24.568;2023-10-31T09:18:13;86089.63;;;18.88;37.16
41312;BME280;27061;41.648;24.568;2023-10-31T09:20:40;86087.78;;;18.99;36.48
41312;BME280;27061;41.648;24.568;2023-10-31T09:23:07;86056.03;;;18.86;35.66
41312;BME280;27061;41.648;24.568;2023-10-31T09:25:34;86046.94;;;18.86;30.12
41312;BME280;27061;41.648;24.568;2023-10-31T09:28:01;86007.88;;;18.63;33.71
41312;BME280;27061;41.648;24.568;2023-10-31T09:30:28;86084.94;;;19.37;33.61
41312;BME280;27061;41.648;24.568;2023-10-31T09:32:55;86029.09;;;19.12;34.04
41312;BME280;27061;41.648;24.568;2023-10-31T09:35:22;86057.44;;;19.58;33.41
41312;BME280;27061;41.648;24.568;2023-10-31T09:37:50;86046.88;;;19.59;34.09
41312;BME280;27061;41.648;24.568;2023-10-31T09:40:17;86010.25;;;19.44;34.85
41312;BME280;27061;41.648;24.568;2023-10-31T09:42:45;86018.13;;;19.58;34.41
41312;BME280;27061;41.648;24.568;2023-10-31T09:45:13;86030.13;;;19.90;34.07
41312;BME280;27061;41.648;24.568;2023-10-31T09:47:40;86008.31;;;19.91;32.82
41312;BME280;27061;41.648;24.568;2023-10-31T09:50:10;86056.72;;;20.41;30.61
41312;BME280;27061;41.648;24.568;2023-10-31T09:52:39;86040.00;;;20.54;30.22
41312;BME280;27061;41.648;24.568;2023-10-31T09:55:06;86037.97;;;20.53;30.49
41312;BME280;27061;41.648;24.568;2023-10-31T09:57:34;86040.13;;;20.67;30.19
41312;BME280;27061;41.648;24.568;2023-10-31T10:00:02;86035.69;;;20.72;30.81
41312;BME280;27061;41.648;24.568;2023-10-31T10:02:35;86033.41;;;20.91;31.63
41312;BME280;27061;41.648;24.568;2023-10-31T10:05:04;86023.13;;;21.00;30.49
41312;BME280;27061;41.648;24.568;2023-10-31T10:07:33;85976.13;;;20.82;30.05
41312;BME280;27061;41.648;24.568;2023-10-31T10:10:00;85999.94;;;21.14;30.36
41312;BME280;27061;41.648;24.568;2023-10-31T10:12:27;86012.91;;;21.39;30.80
41312;BME280;27061;41.648;24.568;2023-10-31T10:14:54;85973.06;;;21.17;31.32
41312;BME280;27061;41.648;24.568;2023-10-31T10:17:27;85957.94;;;21.25;29.89
41312;BME280;27061;41.648;24.568;2023-10-31T10:20:08;86004.41;;;21.68;27.74
41312;BME280;27061;41.648;24.568;2023-10-31T10:22:39;85962.38;;;21.49;29.61
41312;BME280;27061;41.648;24.568;2023-10-31T10:25:11;85943.53;;;21.46;29.37
41312;BME280;27061;41.648;24.568;2023-10-31T10:27:53;85997.47;;;21.95;30.53
41312;BME280;27061;41.648;24.568;2023-10-31T10:30:21;85979.31;;;21.91;30.32
41312;BME280;27061;41.648;24.568;2023-10-31T10:32:49;85988.13;;;22.13;30.11
41312;BME280;27061;41.648;24.568;2023-10-31T10:35:18;85989.06;;;22.22;29.94
41312;BME280;27061;41.648;24.568;2023-10-31T10:37:46;85986.84;;;22.37;29.78
41312;BME280;27061;41.648;24.568;2023-10-31T10:40:15;85983.03;;;22.43;28.83
41312;BME280;27061;41.648;24.568;2023-10-31T10:42:46;85933.75;;;22.14;28.75
41312;BME280;27061;41.648;24.568;2023-10-31T10:45:22;85940.69;;;22.30;30.10
41312;BME280;27061;41.648;24.568;2023-10-31T10:47:51;85923.78;;;22.30;29.46
41312;BME280;27061;41.648;24.568;2023-10-31T10:50:19;85973.19;;;22.69;29.02
41312;BME280;27061;41.648;24.568;2023-10-31T10:52:53;85969.16;;;22.79;27.99
41312;BME280;27061;41.648;24.568;2023-10-31T10:55:25;85963.09;;;22.87;27.15
41312;BME280;27061;41.648;24.568;2023-10-31T10:58:24;85932.78;;;22.73;26.79
41312;BME280;27061;41.648;24.568;2023-10-31T11:00:55;85920.03;;;22.74;25.49
41312;BME280;27061;41.648;24.568;2023-10-31T11:03:26;85954.19;;;23.08;26.39
41312;BME280;27061;41.648;24.568;2023-10-31T11:05:55;85934.31;;;22.97;27.56
41312;BME280;27061;41.648;24.568;2023-10-31T11:08:23;85946.16;;;23.12;26.99
41312;BME280;27061;41.648;24.568;2023-10-31T11:10:52;85950.47;;;23.11;26.16
41312;BME280;27061;41.648;24.568;2023-10-31T11:13:24;85948.00;;;23.18;22.68
41312;BME280;27061;41.648;24.568;2023-10-31T11:15:55;85942.69;;;23.24;25.16
41312;BME280;27061;41.648;24.568;2023-10-31T11:18:25;85906.88;;;22.95;25.91
41312;BME280;27061;41.648;24.568;2023-10-31T11:20:52;85925.03;;;23.11;23.67
41312;BME280;27061;41.648;24.568;2023-10-31T11:23:19;85907.31;;;23.00;26.04
41312;BME280;27061;41.648;24.568;2023-10-31T11:25:50;85947.53;;;23.26;23.48
41312;BME280;27061;41.648;24.568;2023-10-31T11:28:22;85937.38;;;23.18;24.18
41312;BME280;27061;41.648;24.568;2023-10-31T11:30:50;85908.84;;;22.59;23.54
41312;BME280;27061;41.648;24.568;2023-10-31T11:33:20;85942.09;;;22.84;24.45
41312;BME280;27061;41.648;24.568;2023-10-31T11:35:51;85935.75;;;22.83;24.76
41312;BME280;27061;41.648;24.568;2023-10-31T11:38:30;85931.69;;;22.80;26.19
41312;BME280;27061;41.648;24.568;2023-10-31T11:41:00;85947.19;;;22.94;23.02
41312;BME280;27061;41.648;24.568;2023-10-31T11:46:22;85924.00;;;22.79;23.88
41312;BME280;27061;41.648;24.568;2023-10-31T11:48:56;85931.78;;;22.78;24.12
41312;BME280;27061;41.648;24.568;2023-10-31T11:51:24;85939.97;;;22.97;23.88
41312;BME280;27061;41.648;24.568;2023-10-31T11:53:52;85932.84;;;22.85;25.45
41312;BME280;27061;41.648;24.568;2023-10-31T11:56:20;85937.56;;;22.76;25.02
41312;BME280;27061;41.648;24.568;2023-10-31T11:59:04;85888.50;;;22.44;23.05
41312;BME280;27061;41.648;24.568;2023-10-31T12:01:34;85879.25;;;22.45;24.89
41312;BME280;27061;41.648;24.568;2023-10-31T12:04:01;85923.13;;;22.95;19.43
41312;BME280;27061;41.648;24.568;2023-10-31T12:06:34;85927.41;;;22.94;20.70
41312;BME280;27061;41.648;24.568;2023-10-31T12:09:01;85927.22;;;22.98;21.61
41312;BME280;27061;41.648;24.568;2023-10-31T12:11:29;85915.47;;;23.06;25.27
41312;BME280;27061;41.648;24.568;2023-10-31T12:14:01;85921.56;;;22.98;26.17
41312;BME280;27061;41.648;24.568;2023-10-31T12:16:30;85869.91;;;22.61;26.55
41312;BME280;27061;41.648;24.568;2023-10-31T12:19:00;85878.75;;;22.81;27.49
41312;BME280;27061;41.648;24.568;2023-10-31T12:21:41;85900.56;;;22.95;28.62
41312;BME280;27061;41.648;24.568;2023-10-31T12:24:12;85849.72;;;22.70;25.12
41312;BME280;27061;41.648;24.568;2023-10-31T12:26:39;85875.84;;;22.30;24.40
41312;BME280;27061;41.648;24.568;2023-10-31T12:29:17;85898.47;;;22.55;23.96
41312;BME280;27061;41.648;24.568;2023-10-31T12:31:51;85894.22;;;22.82;27.00
41312;BME280;27061;41.648;24.568;2023-10-31T12:34:23;85834.00;;;22.35;27.19
41312;BME280;27061;41.648;24.568;2023-10-31T12:36:53;85828.22;;;22.37;26.52
41312;BME280;27061;41.648;24.568;2023-10-31T12:39:26;85895.00;;;22.93;28.34
41312;BME280;27061;41.648;24.568;2023-10-31T12:41:54;85889.47;;;22.91;27.30
41312;BME280;27061;41.648;24.568;2023-10-31T12:44:26;85893.34;;;22.98;28.36
41312;BME280;27061;41.648;24.568;2023-10-31T12:46:55;85892.09;;;23.08;25.55
41312;BME280;27061;41.648;24.568;2023-10-31T12:49:23;85883.50;;;22.97;27.82
41312;BME280;27061;41.648;24.568;2023-10-31T12:52:00;85876.50;;;22.96;28.13
41312;BME280;27061;41.648;24.568;2023-10-31T12:54:35;85857.88;;;22.76;28.13
41312;BME280;27061;41.648;24.568;2023-10-31T12:57:08;85889.03;;;22.99;28.18
41312;BME280;27061;41.648;24.568;2023-10-31T12:59:37;85842.72;;;22.56;28.17
41312;BME280;27061;41.648;24.568;2023-10-31T13:02:06;85897.84;;;22.93;27.55
41312;BME280;27061;41.648;24.568;2023-10-31T13:04:35;85892.19;;;22.93;28.12